sensor_id;sensor_type;location;lat;lon;timestamp;pressure;altitude;pressure_sealevel;temperature;humidity
41800;BME280;27468;47.460;19.034;2023-05-21T00:00:09;100518.22;;;17.61;67.91
41800;BME280;27468;47.460;19.034;2023-05-21T00:02:37;100517.47;;;17.57;68.07
41800;BME280;27468;47.460;19.034;2023-05-21T00:05:03;100500.47;;;17.41;68.51
41800;BME280;27468;47.460;19.034;2023-05-21T00:07:29;100520.78;;;17.43;68.78
41800;BME280;27468;47.460;19.034;2023-05-21T00:09:57;100524.16;;;17.47;68.80
41800;BME280;27468;47.460;19.034;2023-05-21T00:12:22;100530.50;;;17.44;68.95
41800;BME280;27468;47.460;19.034;2023-05-21T00:14:48;100489.66;;;17.25;68.85
41800;BME280;27468;47.460;19.034;2023-05-21T00:17:13;100542.53;;;17.53;68.72
41800;BME280;27468;47.460;19.034;2023-05-21T00:19:38;100540.16;;;17.47;69.07
41800;BME280;27468;47.460;19.034;2023-05-21T00:22:04;100486.56;;;17.15;69.82
41800;BME280;27468;47.460;19.034;2023-05-21T00:24:30;100479.56;;;17.13;69.78
41800;BME280;27468;47.460;19.034;2023-05-21T00:26:55;100536.84;;;17.42;69.47
41800;BME280;27468;47.460;19.034;2023-05-21T00:29:21;100519.78;;;17.27;69.89
41800;BME280;27468;47.460;19.034;2023-05-21T00:31:47;100527.75;;;17.27;69.77
41800;BME280;27468;47.460;19.034;2023-05-21T00:34:15;100536.31;;;17.34;70.04
41800;BME280;27468;47.460;19.034;2023-05-21T00:36:40;100540.72;;;17.35;70.13
41800;BME280;27468;47.460;19.034;2023-05-21T00:39:09;100534.69;;;17.31;69.93
41800;BME280;27468;47.460;19.034;2023-05-21T00:41:35;100520.31;;;17.15;69.97
41800;BME280;27468;47.460;19.034;2023-05-21T00:44:02;100530.78;;;17.20;70.01
41800;BME280;27468;47.460;19.034;2023-05-21T00:46:28;100525.38;;;17.21;70.62
41800;BME280;27468;47.460;19.034;2023-05-21T00:48:53;100512.31;;;17.15;70.12
41800;BME280;27468;47.460;19.034;2023-05-21T00:51:22;100531.56;;;17.22;69.75
41800;BME280;27468;47.460;19.034;2023-05-21T00:53:49;100525.84;;;17.10;70.37
41800;BME280;27468;47.460;19.034;2023-05-21T00:56:18;100479.84;;;16.87;70.37
41800;BME280;27468;47.460;19.034;2023-05-21T00:58:44;100534.91;;;17.06;71.16
41800;BME280;27468;47.460;19.034;2023-05-21T01:01:09;100514.25;;;16.91;71.09
41800;BME280;27468;47.460;19.034;2023-05-21T01:03:38;100536.72;;;17.06;70.99
41800;BME280;27468;47.460;19.034;2023-05-21T01:06:04;100502.28;;;16.81;71.43
41800;BME280;27468;47.460;19.034;2023-05-21T01:08:30;100500.75;;;16.75;72.34
41800;BME280;27468;47.460;19.034;2023-05-21T01:10:56;100523.31;;;16.87;72.32
41800;BME280;27468;47.460;19.034;2023-05-21T01:13:23;100473.06;;;16.59;72.34
41800;BME280;27468;47.460;19.034;2023-05-21T01:15:49;100524.72;;;16.96;71.40
41800;BME280;27468;47.460;19.034;2023-05-21T01:18:15;100528.31;;;16.95;71.56
41800;BME280;27468;47.460;19.034;2023-05-21T01:20:41;100497.81;;;16.81;71.31
41800;BME280;27468;47.460;19.034;2023-05-21T01:23:15;100518.84;;;16.88;71.58
41800;BME280;27468;47.460;19.034;2023-05-21T01:25:41;100460.88;;;16.54;72.08
41800;BME280;27468;47.460;19.034;2023-05-21T01:28:06;100503.56;;;16.72;72.19
41800;BME280;27468;47.460;19.034;2023-05-21T01:30:32;100515.47;;;16.84;71.74
41800;BME280;27468;47.460;19.034;2023-05-21T01:33:03;100526.19;;;16.82;71.83
41800;BME280;27468;47.460;19.034;2023-05-21T01:35:34;100529.34;;;16.72;72.03
41800;BME280;27468;47.460;19.034;2023-05-21T01:38:23;100523.94;;;16.73;72.30
41800;BME280;27468;47.460;19.034;2023-05-21T01:41:01;100480.50;;;16.51;71.74
41800;BME280;27468;47.460;19.034;2023-05-21T01:43:33;100448.78;;;16.25;72.03
41800;BME280;27468;47.460;19.034;2023-05-21T01:45:59;100521.09;;;16.56;72.77
41800;BME280;27468;47.460;19.034;2023-05-21T01:48:29;100516.69;;;16.55;72.65
41800;BME280;27468;47.460;19.034;2023-05-21T01:51:01;100526.47;;;16.55;73.13
41800;BME280;27468;47.460;19.034;2023-05-21T01:53:28;100527.72;;;16.46;73.27
41800;BME280;27468;47.460;19.034;2023-05-21T01:55:53;100527.53;;;16.50;73.00
41800;BME280;27468;47.460;19.034;2023-05-21T01:58:19;100479.91;;;16.23;73.11
41800;BME280;27468;47.460;19.034;2023-05-21T02:00:45;100489.81;;;16.19;74.08
41800;BME280;27468;47.460;19.034;2023-05-21T02:03:12;100528.97;;;16.37;73.98
41800;BME280;27468;47.460;19.034;2023-05-21T02:05:39;100525.56;;;16.34;74.18
41800;BME280;27468;47.460;19.034;2023-05-21T02:08:04;100531.50;;;16.40;74.06
41800;BME280;27468;47.460;19.034;2023-05-21T02:10:32;100515.91;;;16.31;74.31
41800;BME280;27468;47.460;19.034;2023-05-21T02:12:58;100518.69;;;16.28;74.26
41800;BME280;27468;47.460;19.034;2023-05-21T02:15:23;100525.88;;;16.26;74.75
41800;BME280;27468;47.460;19.034;2023-05-21T02:17:49;100500.06;;;16.08;74.88
41800;BME280;27468;47.460;19.034;2023-05-21T02:20:16;100506.78;;;16.16;75.05
41800;BME280;27468;47.460;19.034;2023-05-21T02:22:43;100517.44;;;16.16;74.93
41800;BME280;27468;47.460;19.034;2023-05-21T02:25:10;100527.91;;;16.19;74.92
41800;BME280;27468;47.460;19.034;2023-05-21T02:27:37;100514.78;;;16.16;75.20
41800;BME280;27468;47.460;19.034;2023-05-21T02:30:03;100514.22;;;16.08;75.93
41800;BME280;27468;47.460;19.034;2023-05-21T02:32:29;100527.50;;;16.08;75.76
41800;BME280;27468;47.460;19.034;2023-05-21T02:34:59;100519.53;;;16.08;75.73
41800;BME280;27468;47.460;19.034;2023-05-21T02:37:25;100501.78;;;15.87;76.27
41800;BME280;27468;47.460;19.034;2023-05-21T02:39:54;100466.88;;;15.73;75.98
41800;BME280;27468;47.460;19.034;2023-05-21T02:42:22;100505.91;;;15.94;76.34
41800;BME280;27468;47.460;19.034;2023-05-21T02:44:49;100502.41;;;15.94;76.18
41800;BME280;27468;47.460;19.034;2023-05-21T02:47:15;100475.66;;;15.75;76.35
41800;BME280;27468;47.460;19.034;2023-05-21T02:49:40;100518.41;;;15.92;76.58
41800;BME280;27468;47.460;19.034;2023-05-21T02:52:06;100520.19;;;15.92;77.22
41800;BME280;27468;47.460;19.034;2023-05-21T02:54:31;100522.84;;;15.92;76.90
41800;BME280;27468;47.460;19.034;2023-05-21T02:56:57;100496.75;;;15.79;76.17
41800;BME280;27468;47.460;19.034;2023-05-21T02:59:22;100530.09;;;15.88;77.35
41800;BME280;27468;47.460;19.034;2023-05-21T03:01:48;100527.72;;;15.80;78.13
41800;BME280;27468;47.460;19.034;2023-05-21T03:04:13;100525.25;;;15.76;78.41
41800;BME280;27468;47.460;19.034;2023-05-21T03:06:39;100521.59;;;15.78;77.86
41800;BME280;27468;47.460;19.034;2023-05-21T03:09:04;100516.41;;;15.75;77.47
41800;BME280;27468;47.460;19.034;2023-05-21T03:11:30;100506.69;;;15.74;77.32
41800;BME280;27468;47.460;19.034;2023-05-21T03:13:56;100513.50;;;15.81;77.00
41800;BME280;27468;47.460;19.034;2023-05-21T03:16:21;100498.47;;;15.80;76.65
41800;BME280;27468;47.460;19.034;2023-05-21T03:18:47;100516.75;;;15.90;76.67
41800;BME280;27468;47.460;19.034;2023-05-21T03:21:12;100493.00;;;15.85;76.74
41800;BME280;27468;47.460;19.034;2023-05-21T03:23:40;100500.84;;;15.88;76.75
41800;BME280;27468;47.460;19.034;2023-05-21T03:26:06;100507.84;;;15.91;76.65
41800;BME280;27468;47.460;19.034;2023-05-21T03:28:32;100518.41;;;15.92;76.71
41800;BME280;27468;47.460;19.034;2023-05-21T03:30:57;100465.94;;;15.52;77.28
41800;BME280;27468;47.460;19.034;2023-05-21T03:33:23;100453.44;;;15.54;77.40
41800;BME280;27468;47.460;19.034;2023-05-21T03:35:49;100455.47;;;15.47;77.51
41800;BME280;27468;47.460;19.034;2023-05-21T03:38:14;100501.88;;;15.84;76.84
41800;BME280;27468;47.460;19.034;2023-05-21T03:40:40;100465.66;;;15.60;77.23
41800;BME280;27468;47.460;19.034;2023-05-21T03:43:05;100517.47;;;15.93;77.11
41800;BME280;27468;47.460;19.034;2023-05-21T03:45:31;100517.38;;;15.96;76.85
41800;BME280;27468;47.460;19.034;2023-05-21T03:47:56;100506.91;;;15.92;77.04
41800;BME280;27468;47.460;19.034;2023-05-21T03:50:22;100523.75;;;16.14;76.67
41800;BME280;27468;47.460;19.034;2023-05-21T03:52:47;100485.78;;;16.31;74.96
41800;BME280;27468;47.460;19.034;2023-05-21T03:55:12;100522.38;;;16.88;72.86
41800;BME280;27468;47.460;19.034;2023-05-21T03:57:38;100515.06;;;16.93;71.97
41800;BME280;27468;47.460;19.034;2023-05-21T04:00:04;100521.44;;;17.09;71.34
41800;BME280;27468;47.460;19.034;2023-05-21T04:02:30;100477.81;;;16.73;71.04
41800;BME280;27468;47.460;19.034;2023-05-21T04:04:56;100519.38;;;16.96;71.80
41800;BME280;27468;47.460;19.034;2023-05-21T04:07:21;100512.28;;;16.96;71.94
41800;BME280;27468;47.460;19.034;2023-05-21T04:09:47;100490.97;;;16.76;72.14
41800;BME280;27468;47.460;19.034;2023-05-21T04:12:12;100526.91;;;17.06;72.14
41800;BME280;27468;47.460;19.034;2023-05-21T04:14:38;100526.44;;;17.17;71.94
41800;BME280;27468;47.460;19.034;2023-05-21T04:17:03;100511.34;;;17.55;70.80
41800;BME280;27468;47.460;19.034;2023-05-21T04:19:30;100527.03;;;18.36;69.87
41800;BME280;27468;47.460;19.034;2023-05-21T04:21:55;100514.38;;;19.09;67.88
41800;BME280;27468;47.460;19.034;2023-05-21T04:24:22;100489.69;;;19.70;64.83
41800;BME280;27468;47.460;19.034;2023-05-21T04:26:48;100520.28;;;20.59;61.30
41800;BME280;27468;47.460;19.034;2023-05-21T04:29:14;100490.22;;;21.12;59.35
41800;BME280;27468;47.460;19.034;2023-05-21T04:31:42;100515.91;;;21.73;55.37
41800;BME280;27468;47.460;19.034;2023-05-21T04:34:08;100519.69;;;21.97;53.75
41800;BME280;27468;47.460;19.034;2023-05-21T04:36:33;100462.84;;;22.05;53.56
41800;BME280;27468;47.460;19.034;2023-05-21T04:38:59;100470.06;;;22.44;52.29
41800;BME280;27468;47.460;19.034;2023-05-21T04:41:24;100520.19;;;23.10;49.09
41800;BME280;27468;47.460;19.034;2023-05-21T04:43:50;100501.75;;;23.42;49.67
41800;BME280;27468;47.460;19.034;2023-05-21T04:46:20;100506.47;;;23.77;47.32
41800;BME280;27468;47.460;19.034;2023-05-21T04:48:51;100508.00;;;24.04;46.15
41800;BME280;27468;47.460;19.034;2023-05-21T04:51:17;100500.97;;;24.39;46.31
41800;BME280;27468;47.460;19.034;2023-05-21T04:53:43;100485.28;;;24.67;45.30
41800;BME280;27468;47.460;19.034;2023-05-21T04:56:10;100507.94;;;25.00;43.93
41800;BME280;27468;47.460;19.034;2023-05-21T04:58:35;100502.13;;;24.93;44.00
41800;BME280;27468;47.460;19.034;2023-05-21T05:01:01;100493.25;;;24.69;42.74
41800;BME280;27468;47.460;19.034;2023-05-21T05:03:28;100463.53;;;24.82;43.83
41800;BME280;27468;47.460;19.034;2023-05-21T05:05:54;100506.13;;;25.12;42.78
41800;BME280;27468;47.460;19.034;2023-05-21T05:08:20;100492.53;;;25.13;43.21
41800;BME280;27468;47.460;19.034;2023-05-21T05:10:46;100489.34;;;24.73;42.87
41800;BME280;27468;47.460;19.034;2023-05-21T05:13:11;100486.22;;;24.31;44.42
41800;BME280;27468;47.460;19.034;2023-05-21T05:15:37;100493.75;;;23.79;44.55
41800;BME280;27468;47.460;19.034;2023-05-21T05:18:02;100505.63;;;23.38;45.61
41800;BME280;27468;47.460;19.034;2023-05-21T05:20:27;100507.50;;;22.72;46.61
41800;BME280;27468;47.460;19.034;2023-05-21T05:22:53;100489.47;;;22.35;47.94
41800;BME280;27468;47.460;19.034;2023-05-21T05:25:18;100504.00;;;21.91;47.48
41800;BME280;27468;47.460;19.034;2023-05-21T05:27:44;100484.88;;;21.55;47.49
41800;BME280;27468;47.460;19.034;2023-05-21T05:30:09;100505.38;;;21.56;48.44
41800;BME280;27468;47.460;19.034;2023-05-21T05:32:35;100447.72;;;21.06;48.89
41800;BME280;27468;47.460;19.034;2023-05-21T05:35:01;100511.81;;;21.25;49.07
41800;BME280;27468;47.460;19.034;2023-05-21T05:37:27;100454.41;;;20.99;49.99
41800;BME280;27468;47.460;19.034;2023-05-21T05:39:52;100417.81;;;20.55;49.44
41800;BME280;27468;47.460;19.034;2023-05-21T05:42:17;100500.16;;;20.96;49.90
41800;BME280;27468;47.460;19.034;2023-05-21T05:44:43;100515.50;;;21.08;50.53
41800;BME280;27468;47.460;19.034;2023-05-21T05:47:08;100486.09;;;20.92;50.38
41800;BME280;27468;47.460;19.034;2023-05-21T05:49:35;100505.06;;;21.03;50.22
41800;BME280;27468;47.460;19.034;2023-05-21T05:52:01;100497.78;;;21.05;50.04
41800;BME280;27468;47.460;19.034;2023-05-21T05:54:26;100520.97;;;21.06;49.99
41800;BME280;27468;47.460;19.034;2023-05-21T05:56:52;100460.72;;;20.69;49.89
41800;BME280;27468;47.460;19.034;2023-05-21T05:59:17;100449.78;;;20.58;50.40
41800;BME280;27468;47.460;19.034;2023-05-21T06:01:42;100461.44;;;20.57;51.01
41800;BME280;27468;47.460;19.034;2023-05-21T06:04:08;100486.63;;;20.69;50.86
41800;BME280;27468;47.460;19.034;2023-05-21T06:06:33;100456.59;;;20.64;51.11
41800;BME280;27468;47.460;19.034;2023-05-21T06:08:59;100464.53;;;20.65;50.55
41800;BME280;27468;47.460;19.034;2023-05-21T06:11:25;100452.44;;;20.58;51.56
41800;BME280;27468;47.460;19.034;2023-05-21T06:13:50;100445.47;;;20.56;51.40
41800;BME280;27468;47.460;19.034;2023-05-21T06:16:16;100496.03;;;20.90;51.59
41800;BME280;27468;47.460;19.034;2023-05-21T06:18:42;100490.84;;;20.87;51.17
41800;BME280;27468;47.460;19.034;2023-05-21T06:21:07;100492.88;;;20.98;51.33
41800;BME280;27468;47.460;19.034;2023-05-21T06:23:33;100451.53;;;20.73;50.94
41800;BME280;27468;47.460;19.034;2023-05-21T06:26:00;100487.06;;;21.05;51.70
41800;BME280;27468;47.460;19.034;2023-05-21T06:28:26;100483.16;;;21.11;51.31
41800;BME280;27468;47.460;19.034;2023-05-21T06:30:51;100472.72;;;21.06;50.28
41800;BME280;27468;47.460;19.034;2023-05-21T06:33:16;100478.94;;;21.07;50.62
41800;BME280;27468;47.460;19.034;2023-05-21T06:35:42;100478.06;;;21.06;50.22
41800;BME280;27468;47.460;19.034;2023-05-21T06:38:07;100451.34;;;20.91;50.17
41800;BME280;27468;47.460;19.034;2023-05-21T06:40:33;100470.97;;;21.05;50.69
41800;BME280;27468;47.460;19.034;2023-05-21T06:42:59;100432.84;;;20.86;50.38
41800;BME280;27468;47.460;19.034;2023-05-21T06:45:24;100473.66;;;21.05;50.29
41800;BME280;27468;47.460;19.034;2023-05-21T06:47:50;100464.09;;;21.01;50.43
41800;BME280;27468;47.460;19.034;2023-05-21T06:50:15;100469.13;;;21.22;50.84
41800;BME280;27468;47.460;19.034;2023-05-21T06:52:41;100423.09;;;20.99;51.20
41800;BME280;27468;47.460;19.034;2023-05-21T06:55:06;100415.44;;;21.07;50.79
41800;BME280;27468;47.460;19.034;2023-05-21T06:57:32;100472.34;;;21.41;50.69
41800;BME280;27468;47.460;19.034;2023-05-21T06:59:57;100442.28;;;21.36;50.40
41800;BME280;27468;47.460;19.034;2023-05-21T07:02:24;100454.03;;;21.48;50.14
41800;BME280;27468;47.460;19.034;2023-05-21T07:04:50;100407.53;;;21.34;49.93
41800;BME280;27468;47.460;19.034;2023-05-21T07:07:17;100408.91;;;21.40;50.16
41800;BME280;27468;47.460;19.034;2023-05-21T07:09:43;100370.81;;;21.21;50.02
41800;BME280;27468;47.460;19.034;2023-05-21T07:12:08;100414.66;;;21.48;49.54
41800;BME280;27468;47.460;19.034;2023-05-21T07:14:33;100439.34;;;21.67;48.77
41800;BME280;27468;47.460;19.034;2023-05-21T07:16:59;100418.00;;;21.52;48.96
41800;BME280;27468;47.460;19.034;2023-05-21T07:19:24;100411.59;;;21.54;48.30
41800;BME280;27468;47.460;19.034;2023-05-21T07:21:50;100445.09;;;21.75;48.33
41800;BME280;27468;47.460;19.034;2023-05-21T07:24:15;100456.28;;;21.82;47.95
41800;BME280;27468;47.460;19.034;2023-05-21T07:26:41;100435.88;;;21.80;48.48
41800;BME280;27468;47.460;19.034;2023-05-21T07:29:06;100447.53;;;21.93;48.56
41800;BME280;27468;47.460;19.034;2023-05-21T07:31:32;100443.56;;;21.98;48.25
41800;BME280;27468;47.460;19.034;2023-05-21T07:33:57;100441.47;;;22.03;48.88
41800;BME280;27468;47.460;19.034;2023-05-21T07:36:23;100427.16;;;22.03;48.17
41800;BME280;27468;47.460;19.034;2023-05-21T07:38:48;100448.59;;;22.17;48.22
41800;BME280;27468;47.460;19.034;2023-05-21T07:41:13;100435.47;;;22.13;48.25
41800;BME280;27468;47.460;19.034;2023-05-21T07:43:39;100435.38;;;22.14;48.28
41800;BME280;27468;47.460;19.034;2023-05-21T07:46:04;100399.06;;;22.08;47.99
41800;BME280;27468;47.460;19.034;2023-05-21T07:48:29;100441.78;;;22.38;46.47
41800;BME280;27468;47.460;19.034;2023-05-21T07:50:56;100387.91;;;22.15;46.38
41800;BME280;27468;47.460;19.034;2023-05-21T07:53:22;100403.94;;;22.29;47.36
41800;BME280;27468;47.460;19.034;2023-05-21T07:55:47;100406.31;;;22.33;47.70
41800;BME280;27468;47.460;19.034;2023-05-21T07:58:16;100442.88;;;22.61;47.52
41800;BME280;27468;47.460;19.034;2023-05-21T08:00:43;100431.38;;;22.59;47.00
41800;BME280;27468;47.460;19.034;2023-05-21T08:03:12;100412.03;;;22.54;46.35
41800;BME280;27468;47.460;19.034;2023-05-21T08:05:38;100423.09;;;22.62;46.12
41800;BME280;27468;47.460;19.034;2023-05-21T08:08:03;100432.03;;;22.76;45.71
41800;BME280;27468;47.460;19.034;2023-05-21T08:10:30;100434.56;;;22.79;46.29
41800;BME280;27468;47.460;19.034;2023-05-21T08:12:55;100444.03;;;22.84;45.88
41800;BME280;27468;47.460;19.034;2023-05-21T08:15:21;100427.53;;;22.76;45.64
41800;BME280;27468;47.460;19.034;2023-05-21T08:17:47;100440.38;;;22.85;46.44
41800;BME280;27468;47.460;19.034;2023-05-21T08:20:13;100441.00;;;22.89;46.57
41800;BME280;27468;47.460;19.034;2023-05-21T08:22:39;100410.38;;;22.79;46.35
41800;BME280;27468;47.460;19.034;2023-05-21T08:25:06;100445.53;;;23.01;45.65
41800;BME280;27468;47.460;19.034;2023-05-21T08:27:32;100443.50;;;23.04;46.67
41800;BME280;27468;47.460;19.034;2023-05-21T08:29:57;100419.94;;;22.95;46.99
41800;BME280;27468;47.460;19.034;2023-05-21T08:32:22;100440.00;;;23.15;46.68
41800;BME280;27468;47.460;19.034;2023-05-21T08:34:48;100416.72;;;23.03;46.67
41800;BME280;27468;47.460;19.034;2023-05-21T08:37:13;100445.19;;;23.18;45.84
41800;BME280;27468;47.460;19.034;2023-05-21T08:39:39;100404.56;;;22.97;46.12
41800;BME280;27468;47.460;19.034;2023-05-21T08:42:23;100429.47;;;23.25;45.82
41800;BME280;27468;47.460;19.034;2023-05-21T08:44:53;100432.56;;;23.31;45.81
41800;BME280;27468;47.460;19.034;2023-05-21T08:47:25;100443.44;;;23.43;46.18
41800;BME280;27468;47.460;19.034;2023-05-21T08:49:53;100447.72;;;23.45;45.76
41800;BME280;27468;47.460;19.034;2023-05-21T08:52:20;100405.25;;;23.25;45.27
41800;BME280;27468;47.460;19.034;2023-05-21T08:54:46;100429.13;;;23.42;45.25
41800;BME280;27468;47.460;19.034;2023-05-21T08:57:16;100444.41;;;23.54;44.98
41800;BME280;27468;47.460;19.034;2023-05-21T08:59:43;100419.31;;;23.41;44.32
41800;BME280;27468;47.460;19.034;2023-05-21T09:02:12;100402.66;;;23.36;44.42
41800;BME280;27468;47.460;19.034;2023-05-21T09:04:42;100416.94;;;23.49;43.95
41800;BME280;27468;47.460;19.034;2023-05-21T09:07:12;100448.53;;;23.71;44.49
41800;BME280;27468;47.460;19.034;2023-05-21T09:09:47;100410.06;;;23.58;44.10
41800;BME280;27468;47.460;19.034;2023-05-21T09:12:15;100426.13;;;23.70;44.26
41800;BME280;27468;47.460;19.034;2023-05-21T09:14:42;100345.41;;;23.34;44.87
41800;BME280;27468;47.460;19.034;2023-05-21T09:17:07;100423.28;;;23.85;44.36
41800;BME280;27468;47.460;19.034;2023-05-21T09:19:33;100381.31;;;23.58;44.18
41800;BME280;27468;47.460;19.034;2023-05-21T09:22:02;100432.94;;;24.00;43.75
41800;BME280;27468;47.460;19.034;2023-05-21T09:24:30;100430.81;;;23.92;43.36
41800;BME280;27468;47.460;19.034;2023-05-21T09:26:56;100430.34;;;23.98;44.12
41800;BME280;27468;47.460;19.034;2023-05-21T09:29:23;100430.13;;;24.01;44.00
41800;BME280;27468;47.460;19.034;2023-05-21T09:31:50;100416.59;;;23.90;41.86
41800;BME280;27468;47.460;19.034;2023-05-21T09:34:16;100439.56;;;24.07;42.62
41800;BME280;27468;47.460;19.034;2023-05-21T09:36:41;100386.91;;;23.79;42.37
41800;BME280;27468;47.460;19.034;2023-05-21T09:39:08;100431.63;;;24.06;43.07
41800;BME280;27468;47.460;19.034;2023-05-21T09:41:36;100434.47;;;24.15;43.29
41800;BME280;27468;47.460;19.034;2023-05-21T09:44:02;100431.00;;;24.26;43.28
41800;BME280;27468;47.460;19.034;2023-05-21T09:46:39;100429.41;;;24.34;43.33
41800;BME280;27468;47.460;19.034;2023-05-21T09:49:05;100416.06;;;24.33;43.28
41800;BME280;27468;47.460;19.034;2023-05-21T09:51:30;100437.31;;;24.49;42.16
41800;BME280;27468;47.460;19.034;2023-05-21T09:53:56;100418.31;;;24.50;40.71
41800;BME280;27468;47.460;19.034;2023-05-21T09:56:24;100365.81;;;24.21;41.77
41800;BME280;27468;47.460;19.034;2023-05-21T09:58:51;100398.56;;;24.39;41.48
41800;BME280;27468;47.460;19.034;2023-05-21T10:01:19;100403.63;;;24.54;39.99
41800;BME280;27468;47.460;19.034;2023-05-21T10:03:49;100420.31;;;24.59;39.74
41800;BME280;27468;47.460;19.034;2023-05-21T10:06:16;100399.59;;;24.49;39.07
41800;BME280;27468;47.460;19.034;2023-05-21T10:08:44;100404.63;;;24.53;39.29
41800;BME280;27468;47.460;19.034;2023-05-21T10:11:13;100413.72;;;24.63;39.87
41800;BME280;27468;47.460;19.034;2023-05-21T10:13:44;100403.91;;;24.62;40.60
41800;BME280;27468;47.460;19.034;2023-05-21T10:16:12;100405.78;;;24.73;40.94
41800;BME280;27468;47.460;19.034;2023-05-21T10:18:41;100336.22;;;24.32;40.86
41800;BME280;27468;47.460;19.034;2023-05-21T10:21:07;100398.06;;;24.80;40.29
41800;BME280;27468;47.460;19.034;2023-05-21T10:23:35;100383.72;;;24.79;40.34
41800;BME280;27468;47.460;19.034;2023-05-21T10:26:01;100396.56;;;24.87;40.46
41800;BME280;27468;47.460;19.034;2023-05-21T10:28:29;100389.56;;;24.84;40.10
41800;BME280;27468;47.460;19.034;2023-05-21T10:30:55;100401.09;;;24.86;39.43
41800;BME280;27468;47.460;19.034;2023-05-21T10:33:22;100394.13;;;24.95;40.24
41800;BME280;27468;47.460;19.034;2023-05-21T10:35:48;100403.72;;;24.99;40.72
41800;BME280;27468;47.460;19.034;2023-05-21T10:38:17;100365.47;;;24.83;40.37
41800;BME280;27468;47.460;19.034;2023-05-21T10:40:43;100388.66;;;25.08;41.04
41800;BME280;27468;47.460;19.034;2023-05-21T10:51:09;100374.06;;;25.10;38.55
41800;BME280;27468;47.460;19.034;2023-05-21T10:56:22;100395.03;;;25.29;37.54
41800;BME280;27468;47.460;19.034;2023-05-21T11:01:28;100320.22;;;25.09;37.30
41800;BME280;27468;47.460;19.034;2023-05-21T11:03:54;100384.78;;;25.55;37.34
41800;BME280;27468;47.460;19.034;2023-05-21T11:06:25;100388.22;;;25.68;37.91
41800;BME280;27468;47.460;19.034;2023-05-21T11:08:51;100371.63;;;25.84;37.27
41800;BME280;27468;47.460;19.034;2023-05-21T11:14:33;100318.59;;;26.04;36.65
41800;BME280;27468;47.460;19.034;2023-05-21T11:17:11;100357.75;;;26.30;36.46
41800;BME280;27468;47.460;19.034;2023-05-21T11:19:41;100352.59;;;26.27;37.77
41800;BME280;27468;47.460;19.034;2023-05-21T11:22:26;100330.63;;;26.31;37.39
41800;BME280;27468;47.460;19.034;2023-05-21T11:24:53;100353.69;;;26.56;36.90
41800;BME280;27468;47.460;19.034;2023-05-21T11:27:35;100320.75;;;26.42;37.21
41800;BME280;27468;47.460;19.034;2023-05-21T11:30:15;100361.56;;;26.69;36.65
41800;BME280;27468;47.460;19.034;2023-05-21T11:35:37;100368.44;;;26.73;34.22
41800;BME280;27468;47.460;19.034;2023-05-21T11:38:07;100326.19;;;26.51;34.94
41800;BME280;27468;47.460;19.034;2023-05-21T11:40:34;100364.16;;;26.71;34.86
41800;BME280;27468;47.460;19.034;2023-05-21T11:42:59;100305.63;;;26.39;34.98
41800;BME280;27468;47.460;19.034;2023-05-21T11:45:30;100355.63;;;26.75;34.83
41800;BME280;27468;47.460;19.034;2023-05-21T11:47:56;100333.84;;;26.77;34.87
41800;BME280;27468;47.460;19.034;2023-05-21T11:50:22;100356.22;;;27.00;34.44
41800;BME280;27468;47.460;19.034;2023-05-21T11:52:49;100349.94;;;26.99;33.78
41800;BME280;27468;47.460;19.034;2023-05-21T11:55:20;100329.34;;;26.87;33.43
41800;BME280;27468;47.460;19.034;2023-05-21T11:57:46;100313.13;;;26.87;33.96
41800;BME280;27468;47.460;19.034;2023-05-21T12:00:14;100343.31;;;27.13;33.31
41800;BME280;27468;47.460;19.034;2023-05-21T12:02:48;100306.38;;;27.02;34.29
41800;BME280;27468;47.460;19.034;2023-05-21T12:05:14;100351.47;;;27.32;34.20
41800;BME280;27468;47.460;19.034;2023-05-21T12:07:40;100336.94;;;27.33;34.02
41800;BME280;27468;47.460;19.034;2023-05-21T12:10:07;100313.22;;;27.06;32.25
41800;BME280;27468;47.460;19.034;2023-05-21T12:12:33;100344.03;;;27.24;32.73
41800;BME280;27468;47.460;19.034;2023-05-21T12:15:00;100326.63;;;27.17;33.44
41800;BME280;27468;47.460;19.034;2023-05-21T12:17:26;100340.34;;;27.35;33.95
41800;BME280;27468;47.460;19.034;2023-05-21T12:19:55;100332.81;;;27.39;34.20
41800;BME280;27468;47.460;19.034;2023-05-21T12:22:24;100303.28;;;27.26;34.68
41800;BME280;27468;47.460;19.034;2023-05-21T12:24:51;100292.88;;;27.21;34.87
41800;BME280;27468;47.460;19.034;2023-05-21T12:27:18;100332.09;;;27.37;33.67
41800;BME280;27468;47.460;19.034;2023-05-21T12:29:47;100317.50;;;27.18;33.35
41800;BME280;27468;47.460;19.034;2023-05-21T12:32:14;100320.09;;;27.10;34.50
41800;BME280;27468;47.460;19.034;2023-05-21T12:34:47;100286.44;;;27.03;35.10
41800;BME280;27468;47.460;19.034;2023-05-21T12:37:27;100329.53;;;27.35;34.76
41800;BME280;27468;47.460;19.034;2023-05-21T12:40:01;100305.03;;;27.37;34.47
41800;BME280;27468;47.460;19.034;2023-05-21T12:42:31;100321.06;;;27.59;34.43
41800;BME280;27468;47.460;19.034;2023-05-21T12:45:00;100308.22;;;27.61;33.68
41800;BME280;27468;47.460;19.034;2023-05-21T12:47:29;100291.22;;;27.49;32.93
41800;BME280;27468;47.460;19.034;2023-05-21T12:50:02;100309.91;;;27.52;33.29
41800;BME280;27468;47.460;19.034;2023-05-21T12:52:28;100307.63;;;27.57;33.52
41800;BME280;27468;47.460;19.034;2023-05-21T12:54:57;100314.38;;;27.63;33.26
41800;BME280;27468;47.460;19.034;2023-05-21T12:57:29;100306.81;;;27.67;33.31